Time;durP1;ratioP1;P1;durP2;ratioP2;P2;SDS_P1;SDS_P2;PMS_P1;PMS_P2;Temp;Humidity;BMP_temperature;BMP_pressure;BME280_temperature;BME280_humidity;BME280_pressure;Samples;Min_cycle;Max_cycle;Signal;HPM_P1;HPM_P2
2021/09/12 00:00:31;;;;;;;25.40;15.43;;;18.60;63.20;;;;;;5137716;27;20031;-36
2021/09/12 00:02:57;;;;;;;22.33;15.25;;;18.60;63.30;;;;;;5138168;27;20015;-35
2021/09/12 00:05:22;;;;;;;20.60;14.77;;;18.50;63.50;;;;;;5137467;27;20035;-35
2021/09/12 00:07:48;;;;;;;20.58;14.77;;;18.50;63.60;;;;;;5138013;27;20073;-35
2021/09/12 00:10:14;;;;;;;22.23;15.38;;;18.50;63.60;;;;;;5137763;27;20039;-35
2021/09/12 00:12:40;;;;;;;21.27;15.55;;;18.50;63.60;;;;;;5137790;27;20027;-34
2021/09/12 00:15:08;;;;;;;21.20;15.02;;;18.50;63.60;;;;;;5137803;27;20386;-37
2021/09/12 00:17:34;;;;;;;22.40;14.52;;;18.50;63.50;;;;;;5137609;27;20016;-37
2021/09/12 00:19:59;;;;;;;24.08;15.15;;;18.50;63.60;;;;;;5137632;27;20038;-36
2021/09/12 00:22:25;;;;;;;20.70;14.95;;;18.50;63.50;;;;;;5137627;27;20019;-34
2021/09/12 00:24:51;;;;;;;20.20;15.55;;;18.50;63.50;;;;;;5137227;27;20243;-35
2021/09/12 00:27:17;;;;;;;23.02;17.38;;;18.50;63.50;;;;;;5137718;27;20030;-36
2021/09/12 00:29:43;;;;;;;21.08;14.75;;;18.50;63.60;;;;;;5137509;27;20414;-36
2021/09/12 00:32:09;;;;;;;21.10;14.90;;;18.40;63.50;;;;;;5137449;27;20097;-34
2021/09/12 00:34:34;;;;;;;24.38;16.80;;;18.40;63.70;;;;;;5137489;27;20031;-35
2021/09/12 00:37:00;;;;;;;24.65;15.60;;;18.40;63.80;;;;;;5136911;27;20031;-35
2021/09/12 00:39:26;;;;;;;24.25;15.75;;;18.40;63.90;;;;;;5137120;27;20304;-36
2021/09/12 00:41:52;;;;;;;20.85;15.55;;;18.30;64.00;;;;;;5137154;27;20023;-36
2021/09/12 00:44:18;;;;;;;22.45;16.48;;;18.30;64.00;;;;;;5136947;27;20088;-34
2021/09/12 00:46:45;;;;;;;23.25;16.75;;;18.30;64.10;;;;;;5137199;27;20072;-34
2021/09/12 00:49:12;;;;;;;21.83;16.52;;;18.20;64.20;;;;;;5137104;27;20030;-36
2021/09/12 00:51:39;;;;;;;24.00;17.58;;;18.20;64.40;;;;;;5136917;27;20025;-36
2021/09/12 00:54:07;;;;;;;23.63;16.55;;;18.20;64.50;;;;;;5136832;27;20132;-37
2021/09/12 00:56:36;;;;;;;23.00;14.60;;;18.20;64.60;;;;;;5136731;27;20127;-36
2021/09/12 00:59:02;;;;;;;22.20;15.20;;;18.20;64.60;;;;;;5118574;27;20080;-35
2021/09/12 01:01:29;;;;;;;24.95;16.70;;;18.20;64.60;;;;;;5136738;27;20381;-34
2021/09/12 01:03:55;;;;;;;23.13;16.17;;;18.10;64.60;;;;;;5136729;27;20045;-36
2021/09/12 01:06:22;;;;;;;25.00;16.52;;;18.10;64.60;;;;;;5135974;27;20106;-34
2021/09/12 01:08:48;;;;;;;23.10;16.63;;;18.10;64.90;;;;;;5136659;27;20039;-36
2021/09/12 01:11:14;;;;;;;21.70;16.38;;;18.10;65.00;;;;;;5136887;27;20025;-35
2021/09/12 01:13:43;;;;;;;22.75;16.50;;;18.10;64.90;;;;;;5136532;27;20031;-36
2021/09/12 01:16:19;;;;;;;24.55;16.27;;;18.10;65.00;;;;;;5136446;28;20027;-35
2021/09/12 01:18:47;;;;;;;22.55;17.17;;;18.00;65.20;;;;;;5136598;28;20361;-35
2021/09/12 01:21:14;;;;;;;30.17;17.33;;;18.00;65.10;;;;;;5118305;28;20015;-36
2021/09/12 01:23:41;;;;;;;22.10;17.05;;;18.00;65.30;;;;;;5136489;28;20087;-36
2021/09/12 01:26:07;;;;;;;26.02;17.27;;;18.00;65.30;;;;;;5136541;28;20031;-37
2021/09/12 01:28:33;;;;;;;23.50;18.35;;;18.00;65.30;;;;;;5136978;28;20031;-36
2021/09/12 01:31:00;;;;;;;23.80;16.25;;;17.90;65.30;;;;;;5136433;28;20441;-36
2021/09/12 01:33:26;;;;;;;20.45;16.42;;;17.90;65.30;;;;;;5136933;28;20442;-37
2021/09/12 01:35:52;;;;;;;27.33;17.50;;;17.90;65.50;;;;;;5136392;28;20303;-37
2021/09/12 01:38:18;;;;;;;22.70;16.50;;;17.90;65.60;;;;;;5136966;28;20030;-34
2021/09/12 01:40:44;;;;;;;25.85;17.50;;;17.90;65.60;;;;;;5136235;28;20189;-34
2021/09/12 01:43:09;;;;;;;25.33;18.08;;;17.90;65.70;;;;;;5136801;28;20023;-34
2021/09/12 01:45:35;;;;;;;24.63;17.60;;;17.90;65.70;;;;;;5136232;28;20031;-34
2021/09/12 01:48:01;;;;;;;25.50;17.70;;;17.90;65.70;;;;;;5136829;28;20027;-35
2021/09/12 01:50:28;;;;;;;24.75;18.70;;;17.80;65.70;;;;;;5136129;28;20346;-34
2021/09/12 01:52:54;;;;;;;26.23;19.25;;;17.80;65.90;;;;;;5136714;28;20348;-37
2021/09/12 01:55:20;;;;;;;24.65;18.77;;;17.80;66.20;;;;;;5136012;28;20047;-34
2021/09/12 01:57:46;;;;;;;28.63;20.20;;;17.80;66.10;;;;;;5136643;28;20053;-36
2021/09/12 02:00:12;;;;;;;25.42;18.40;;;17.80;66.30;;;;;;5136625;28;20027;-35
2021/09/12 02:02:38;;;;;;;25.92;18.27;;;17.80;66.30;;;;;;5136380;28;20034;-43
2021/09/12 02:05:04;;;;;;;22.67;18.00;;;17.70;66.30;;;;;;5136059;28;20035;-36
2021/09/12 02:07:30;;;;;;;29.15;19.60;;;17.70;66.40;;;;;;5136136;28;20284;-36
2021/09/12 02:09:55;;;;;;;28.13;19.27;;;17.70;66.70;;;;;;5118145;28;20104;-37
2021/09/12 02:12:21;;;;;;;27.98;20.85;;;17.70;66.90;;;;;;5136398;28;20027;-34
2021/09/12 02:14:47;;;;;;;26.55;20.63;;;17.70;66.90;;;;;;5136069;28;20039;-35
2021/09/12 02:17:13;;;;;;;24.85;18.55;;;17.70;67.00;;;;;;5136308;27;20026;-37
2021/09/12 02:19:38;;;;;;;33.33;20.63;;;17.70;67.00;;;;;;5139629;27;20046;-34
2021/09/12 02:22:06;;;;;;;23.95;18.70;;;17.60;67.10;;;;;;5140005;27;20098;-34
2021/09/12 02:24:33;;;;;;;27.58;20.00;;;17.60;67.20;;;;;;5139512;27;20042;-34
2021/09/12 02:26:58;;;;;;;27.80;19.20;;;17.60;67.30;;;;;;5139747;27;20352;-36
2021/09/12 02:29:24;;;;;;;25.63;19.13;;;17.60;67.40;;;;;;5139749;27;20089;-35
2021/09/12 02:31:50;;;;;;;26.45;19.55;;;17.60;67.50;;;;;;5139638;27;20035;-36
2021/09/12 02:34:16;;;;;;;28.08;19.65;;;17.60;67.60;;;;;;5139700;27;20483;-37
2021/09/12 02:36:42;;;;;;;27.92;19.17;;;17.60;67.60;;;;;;5139402;27;20034;-37
2021/09/12 02:39:08;;;;;;;30.20;20.80;;;17.60;67.60;;;;;;5139788;27;20027;-34
2021/09/12 02:41:33;;;;;;;34.63;20.65;;;17.60;67.60;;;;;;5139131;27;20035;-36
2021/09/12 02:43:59;;;;;;;29.15;21.50;;;17.60;67.60;;;;;;5139528;27;20070;-36
2021/09/12 02:46:25;;;;;;;29.23;20.30;;;17.60;67.70;;;;;;5139295;27;20418;-35
2021/09/12 02:48:51;;;;;;;28.38;20.10;;;17.60;67.60;;;;;;5139211;27;20042;-34
2021/09/12 02:51:16;;;;;;;28.90;20.05;;;17.60;67.60;;;;;;5139072;27;20101;-35
2021/09/12 02:53:42;;;;;;;32.00;21.65;;;17.60;67.70;;;;;;5139139;27;20055;-36
2021/09/12 02:56:07;;;;;;;26.25;19.77;;;17.60;67.70;;;;;;5139244;27;20035;-34
2021/09/12 02:58:33;;;;;;;26.67;19.00;;;17.60;67.80;;;;;;5139411;27;20327;-35
2021/09/12 03:00:59;;;;;;;36.45;22.17;;;17.60;67.90;;;;;;5139231;27;20110;-35
2021/09/12 03:03:25;;;;;;;27.67;20.45;;;17.60;67.90;;;;;;5139612;27;20027;-34
2021/09/12 03:05:51;;;;;;;32.47;21.10;;;17.50;67.90;;;;;;5139071;27;20136;-34
2021/09/12 03:08:17;;;;;;;29.98;20.90;;;17.50;67.90;;;;;;5139477;27;20035;-36
2021/09/12 03:10:43;;;;;;;32.30;20.40;;;17.50;68.00;;;;;;5138674;27;20027;-34
2021/09/12 03:13:09;;;;;;;36.42;21.65;;;17.50;68.10;;;;;;5139319;27;20066;-34
2021/09/12 03:15:35;;;;;;;27.30;20.95;;;17.50;68.10;;;;;;5138439;27;20027;-37
2021/09/12 03:18:00;;;;;;;25.80;19.13;;;17.40;68.10;;;;;;5139185;27;20148;-34
2021/09/12 03:20:26;;;;;;;29.58;21.33;;;17.40;68.20;;;;;;5138673;27;20121;-35
2021/09/12 03:22:52;;;;;;;31.23;21.17;;;17.40;68.50;;;;;;5139005;27;20023;-34
2021/09/12 03:25:18;;;;;;;27.25;21.10;;;17.40;68.40;;;;;;5138529;27;20403;-34
2021/09/12 03:27:43;;;;;;;37.20;21.58;;;17.30;68.40;;;;;;5138661;27;20028;-35
2021/09/12 03:30:09;;;;;;;28.98;21.58;;;17.30;68.50;;;;;;5137757;27;20038;-35
2021/09/12 03:32:35;;;;;;;32.30;21.60;;;17.30;68.70;;;;;;5138681;27;20311;-33
2021/09/12 03:35:01;;;;;;;27.27;20.10;;;17.20;68.70;;;;;;5138557;27;20023;-33
2021/09/12 03:37:27;;;;;;;35.33;22.90;;;17.20;68.80;;;;;;5138445;27;20038;-33
2021/09/12 03:39:52;;;;;;;27.05;19.48;;;17.20;68.90;;;;;;5138690;27;20020;-34
2021/09/12 03:42:18;;;;;;;30.17;20.80;;;17.20;68.90;;;;;;5138493;27;20035;-35
2021/09/12 03:44:44;;;;;;;32.40;21.80;;;17.10;68.90;;;;;;5138206;27;20023;-33
2021/09/12 03:47:09;;;;;;;29.55;20.35;;;17.10;69.00;;;;;;5138130;27;20455;-35
2021/09/12 03:49:35;;;;;;;29.42;20.83;;;17.10;69.00;;;;;;5137979;27;20106;-35
2021/09/12 03:52:01;;;;;;;41.38;24.05;;;17.10;69.20;;;;;;5138083;27;20034;-35
2021/09/12 03:54:26;;;;;;;30.52;22.15;;;17.10;69.20;;;;;;5137761;27;20463;-37
2021/09/12 03:56:52;;;;;;;30.85;22.27;;;17.10;69.30;;;;;;5137792;27;20035;-38
2021/09/12 03:59:18;;;;;;;33.67;22.85;;;17.10;69.50;;;;;;5137870;27;20068;-34
2021/09/12 04:01:43;;;;;;;33.22;22.55;;;17.10;69.60;;;;;;5137790;27;20366;-35
2021/09/12 04:04:09;;;;;;;33.75;20.73;;;17.10;69.80;;;;;;5137696;27;20106;-36
2021/09/12 04:06:35;;;;;;;34.47;23.45;;;17.10;69.90;;;;;;5137660;27;20031;-36
2021/09/12 04:09:00;;;;;;;36.78;23.38;;;17.10;70.10;;;;;;5137559;27;20027;-37
2021/09/12 04:11:26;;;;;;;32.42;23.13;;;17.10;70.40;;;;;;5137614;27;20414;-35
2021/09/12 04:13:52;;;;;;;36.22;23.45;;;17.10;70.50;;;;;;5137910;27;20027;-34
2021/09/12 04:16:18;;;;;;;34.83;21.13;;;17.10;70.50;;;;;;5137211;27;20031;-33
2021/09/12 04:18:43;;;;;;;31.10;22.88;;;17.10;70.50;;;;;;5137627;27;20027;-34
2021/09/12 04:21:09;;;;;;;31.30;23.10;;;17.10;70.70;;;;;;5137322;27;20365;-33
2021/09/12 04:23:35;;;;;;;33.53;20.92;;;17.20;70.80;;;;;;5137654;27;20031;-33
2021/09/12 04:26:01;;;;;;;32.50;22.33;;;17.20;70.90;;;;;;5137331;27;20036;-35
2021/09/12 04:28:26;;;;;;;28.17;21.30;;;17.20;70.80;;;;;;5119113;27;20031;-34
2021/09/12 04:30:52;;;;;;;32.00;24.00;;;17.30;70.80;;;;;;5137307;27;20092;-34
2021/09/12 04:33:17;;;;;;;27.73;19.73;;;17.30;70.80;;;;;;5137341;27;20121;-33
2021/09/12 04:35:43;;;;;;;33.72;22.70;;;17.40;70.70;;;;;;5136787;27;20043;-33
2021/09/12 04:38:09;;;;;;;27.10;19.88;;;17.40;70.60;;;;;;5137691;27;20071;-36
2021/09/12 04:40:34;;;;;;;30.17;22.50;;;17.50;70.60;;;;;;5136542;27;20031;-33
2021/09/12 04:43:00;;;;;;;32.83;22.20;;;17.50;70.50;;;;;;5136877;27;20023;-37
2021/09/12 04:45:26;;;;;;;30.60;21.27;;;17.50;70.30;;;;;;5136617;27;20046;-35
2021/09/12 04:47:51;;;;;;;29.73;21.20;;;17.60;70.40;;;;;;5137376;27;20339;-34
2021/09/12 04:50:17;;;;;;;30.77;21.35;;;17.60;70.30;;;;;;5137068;27;20090;-34
2021/09/12 04:52:44;;;;;;;33.35;22.83;;;17.70;70.30;;;;;;5118830;27;20050;-34
2021/09/12 04:55:10;;;;;;;29.45;20.83;;;17.70;70.30;;;;;;5136615;27;20062;-34
2021/09/12 04:57:35;;;;;;;32.75;22.80;;;17.70;70.20;;;;;;5136664;27;20474;-34
2021/09/12 05:00:02;;;;;;;35.03;22.90;;;17.80;70.20;;;;;;5136804;27;20027;-34
2021/09/12 05:02:28;;;;;;;34.63;23.60;;;17.80;70.20;;;;;;5136827;27;20025;-36
2021/09/12 05:04:53;;;;;;;33.55;23.55;;;17.80;70.10;;;;;;5136399;27;20031;-37
2021/09/12 05:07:19;;;;;;;29.63;23.10;;;17.90;70.10;;;;;;5118459;28;20111;-34
2021/09/12 05:09:44;;;;;;;33.20;22.40;;;17.90;69.90;;;;;;5136872;27;20138;-36
2021/09/12 05:12:10;;;;;;;32.92;23.15;;;17.90;69.80;;;;;;5136841;27;20038;-35
2021/09/12 05:14:36;;;;;;;28.48;22.30;;;17.90;69.70;;;;;;5136464;28;20411;-37
2021/09/12 05:17:01;;;;;;;29.30;20.77;;;18.00;69.70;;;;;;5136506;28;20362;-37
2021/09/12 05:19:27;;;;;;;31.35;21.15;;;18.00;69.60;;;;;;5136469;28;20418;-34
2021/09/12 05:21:53;;;;;;;28.77;20.92;;;18.10;69.70;;;;;;5136705;28;20023;-35
2021/09/12 05:24:18;;;;;;;31.15;21.40;;;18.10;69.40;;;;;;5136626;28;20023;-38
2021/09/12 05:26:44;;;;;;;29.83;21.25;;;18.10;69.30;;;;;;5136721;28;20035;-34
2021/09/12 05:29:10;;;;;;;31.25;22.00;;;18.20;69.20;;;;;;5137013;28;20163;-35
2021/09/12 05:31:35;;;;;;;26.27;20.65;;;18.20;69.10;;;;;;5136428;28;20332;-34
2021/09/12 05:34:01;;;;;;;26.80;19.33;;;18.30;69.10;;;;;;5136837;28;20123;-34
2021/09/12 05:36:27;;;;;;;34.50;21.80;;;18.30;69.00;;;;;;5136175;28;20478;-34
2021/09/12 05:38:52;;;;;;;31.20;23.35;;;18.40;69.10;;;;;;5136256;28;20114;-34
2021/09/12 05:41:18;;;;;;;32.22;21.65;;;18.40;68.90;;;;;;5136082;28;20230;-37
2021/09/12 05:43:44;;;;;;;30.90;23.10;;;18.40;68.70;;;;;;5136032;28;20099;-37
2021/09/12 05:46:09;;;;;;;28.35;20.67;;;18.50;68.60;;;;;;5136146;28;20494;-37
2021/09/12 05:48:35;;;;;;;30.10;20.77;;;18.60;68.30;;;;;;5136591;28;20027;-34
2021/09/12 05:51:02;;;;;;;31.05;18.95;;;18.60;68.00;;;;;;5136210;28;20041;-34
2021/09/12 05:53:28;;;;;;;23.83;17.73;;;18.60;67.80;;;;;;5138513;27;20087;-38
2021/09/12 05:55:53;;;;;;;26.50;19.83;;;18.70;67.70;;;;;;5140054;27;20023;-35
2021/09/12 05:58:19;;;;;;;29.05;19.75;;;18.80;67.60;;;;;;5140826;27;20058;-34
2021/09/12 06:00:45;;;;;;;25.98;18.73;;;18.80;67.30;;;;;;5140032;27;20031;-34
2021/09/12 06:03:11;;;;;;;28.95;18.65;;;18.80;67.20;;;;;;5139804;27;20398;-36
2021/09/12 06:05:37;;;;;;;22.60;16.42;;;18.90;67.20;;;;;;5139474;27;20031;-35
2021/09/12 06:08:03;;;;;;;31.02;18.40;;;19.00;67.10;;;;;;5140318;27;20031;-34
2021/09/12 06:10:29;;;;;;;28.95;18.35;;;19.10;66.50;;;;;;5139960;27;20027;-35
2021/09/12 06:12:55;;;;;;;23.02;15.57;;;19.10;66.20;;;;;;5140142;27;20381;-34
2021/09/12 06:15:21;;;;;;;25.48;16.38;;;19.20;65.80;;;;;;5139455;27;20027;-34
2021/09/12 06:17:47;;;;;;;19.48;14.93;;;19.30;65.90;;;;;;5140077;27;20038;-36
2021/09/12 06:20:13;;;;;;;24.00;14.88;;;19.40;65.60;;;;;;5139792;27;20031;-36
2021/09/12 06:22:46;;;;;;;21.85;15.23;;;19.50;65.20;;;;;;5139643;27;20027;-37
2021/09/12 06:25:13;;;;;;;22.58;14.68;;;19.60;64.70;;;;;;5139367;27;20415;-37
2021/09/12 06:27:40;;;;;;;24.67;16.83;;;19.70;64.70;;;;;;5139359;27;20029;-37
2021/09/12 06:30:08;;;;;;;25.80;15.73;;;19.70;64.10;;;;;;5139604;27;20373;-35
2021/09/12 06:32:34;;;;;;;24.58;15.27;;;19.80;64.10;;;;;;5139531;27;20372;-35
2021/09/12 06:34:59;;;;;;;25.20;15.63;;;19.90;63.90;;;;;;5139147;27;20094;-34
2021/09/12 06:37:25;;;;;;;24.75;16.77;;;20.00;63.50;;;;;;5139374;27;20319;-42
2021/09/12 06:39:51;;;;;;;25.70;17.38;;;20.00;63.20;;;;;;5139499;27;20039;-34
2021/09/12 06:42:16;;;;;;;22.65;15.95;;;20.10;63.40;;;;;;5139467;27;20463;-34
2021/09/12 06:44:42;;;;;;;24.25;16.25;;;20.20;63.20;;;;;;5139210;27;20039;-36
2021/09/12 06:47:08;;;;;;;21.33;14.95;;;20.30;63.10;;;;;;5139163;27;20023;-34
2021/09/12 06:49:33;;;;;;;21.33;15.00;;;20.40;62.80;;;;;;5139046;27;20031;-35
2021/09/12 06:52:00;;;;;;;23.30;15.55;;;20.40;62.70;;;;;;5139105;27;20438;-36
2021/09/12 06:54:26;;;;;;;19.95;14.30;;;20.50;62.60;;;;;;5138559;27;20066;-37
2021/09/12 06:56:52;;;;;;;19.05;14.32;;;20.60;62.30;;;;;;5138583;27;20411;-37
2021/09/12 06:59:18;;;;;;;22.08;14.32;;;20.60;61.30;;;;;;5138869;27;20047;-34
2021/09/12 07:01:43;;;;;;;23.38;14.25;;;20.70;60.90;;;;;;5138882;27;20084;-34
2021/09/12 07:04:09;;;;;;;22.00;13.80;;;20.70;61.20;;;;;;5137697;27;20066;-39
2021/09/12 07:06:35;;;;;;;26.00;15.98;;;20.80;61.20;;;;;;5138890;27;20027;-34
2021/09/12 07:09:01;;;;;;;24.15;15.32;;;20.90;61.50;;;;;;5138746;27;20054;-34
2021/09/12 07:11:26;;;;;;;26.38;17.20;;;20.90;61.70;;;;;;5138681;27;20030;-35
2021/09/12 07:13:52;;;;;;;24.30;17.73;;;20.90;61.90;;;;;;5138476;27;20035;-34
2021/09/12 07:16:18;;;;;;;24.45;16.65;;;21.00;61.30;;;;;;5138281;27;20019;-37
2021/09/12 07:18:43;;;;;;;19.73;14.90;;;21.10;61.50;;;;;;5138582;27;20407;-33
2021/09/12 07:21:09;;;;;;;25.83;16.08;;;21.10;61.50;;;;;;5138350;27;20321;-35
2021/09/12 07:23:35;;;;;;;25.40;16.08;;;21.20;61.20;;;;;;5138361;27;20034;-34
2021/09/12 07:26:01;;;;;;;26.33;18.17;;;21.20;61.20;;;;;;5138502;27;20031;-34
2021/09/12 07:28:26;;;;;;;30.63;19.83;;;21.30;61.80;;;;;;5138952;27;20428;-33
2021/09/12 07:30:52;;;;;;;30.40;19.58;;;21.30;61.90;;;;;;5138235;27;20047;-37
2021/09/12 07:33:18;;;;;;;31.00;18.38;;;21.40;62.30;;;;;;5138731;27;20055;-34
2021/09/12 07:35:44;;;;;;;27.50;20.05;;;21.50;63.00;;;;;;5119593;27;20037;-34
2021/09/12 07:38:09;;;;;;;29.83;19.55;;;21.50;62.70;;;;;;5138722;27;20299;-34
2021/09/12 07:40:35;;;;;;;31.92;17.48;;;21.60;62.90;;;;;;5137779;27;20028;-34
2021/09/12 07:43:01;;;;;;;22.88;17.48;;;21.70;62.70;;;;;;5138365;27;20019;-37
2021/09/12 07:45:27;;;;;;;25.10;18.60;;;21.70;62.50;;;;;;5137939;27;20042;-37
2021/09/12 07:47:52;;;;;;;23.92;15.52;;;21.80;62.20;;;;;;5138363;27;20055;-35
2021/09/12 07:50:18;;;;;;;27.33;16.83;;;21.80;62.10;;;;;;5137628;27;20038;-35
2021/09/12 07:52:44;;;;;;;23.23;16.55;;;21.90;62.00;;;;;;5138184;27;20068;-34
2021/09/12 07:55:14;;;;;;;25.35;16.30;;;22.00;61.70;;;;;;5137541;27;20051;-34
2021/09/12 07:57:41;;;;;;;20.80;15.52;;;22.00;61.30;;;;;;5137941;27;20015;-36
2021/09/12 08:00:08;;;;;;;25.17;17.02;;;22.10;61.20;;;;;;5137919;27;20034;-36
2021/09/12 08:02:33;;;;;;;19.15;15.07;;;22.20;61.30;;;;;;5137673;27;20028;-35
2021/09/12 08:04:59;;;;;;;21.45;15.50;;;22.30;60.90;;;;;;5137227;27;20102;-35
2021/09/12 08:07:25;;;;;;;22.25;15.27;;;22.30;60.50;;;;;;5137598;27;20023;-38
2021/09/12 08:09:50;;;;;;;21.92;15.93;;;22.30;60.30;;;;;;5137594;27;20062;-37
2021/09/12 08:12:16;;;;;;;22.48;15.15;;;22.40;60.40;;;;;;5137492;27;20102;-35
2021/09/12 08:14:42;;;;;;;22.98;15.07;;;22.40;59.90;;;;;;5137582;27;20050;-37
2021/09/12 08:17:08;;;;;;;22.25;15.02;;;22.40;59.70;;;;;;5137089;27;20299;-34
2021/09/12 08:19:33;;;;;;;21.88;15.93;;;22.50;59.80;;;;;;5137058;27;20028;-34
2021/09/12 08:21:59;;;;;;;22.20;16.27;;;22.60;60.10;;;;;;5118863;27;20145;-35
2021/09/12 08:24:25;;;;;;;31.10;17.15;;;22.60;60.00;;;;;;5137364;27;20088;-34
2021/09/12 08:26:51;;;;;;;26.05;16.70;;;22.60;60.20;;;;;;5137190;27;20031;-35
2021/09/12 08:29:16;;;;;;;27.73;16.25;;;22.70;60.10;;;;;;5137166;27;20039;-36
2021/09/12 08:31:42;;;;;;;20.33;15.27;;;22.70;59.50;;;;;;5136969;27;20359;-34
2021/09/12 08:34:08;;;;;;;22.15;15.63;;;22.80;59.40;;;;;;5136691;27;20330;-37
2021/09/12 08:36:34;;;;;;;24.88;16.35;;;22.80;59.90;;;;;;5136591;27;20072;-34
2021/09/12 08:38:59;;;;;;;19.77;14.32;;;22.90;58.90;;;;;;5136453;27;20035;-34
2021/09/12 08:41:25;;;;;;;29.33;17.30;;;22.90;58.50;;;;;;5136802;27;20034;-36
2021/09/12 08:43:51;;;;;;;19.50;14.75;;;23.10;57.90;;;;;;5137123;27;20041;-36
2021/09/12 08:46:18;;;;;;;36.35;18.13;;;23.10;57.40;;;;;;5136900;27;20030;-34
2021/09/12 08:48:45;;;;;;;25.17;17.35;;;23.10;56.90;;;;;;5136885;27;20039;-35
2021/09/12 08:51:11;;;;;;;26.88;17.45;;;23.20;56.70;;;;;;5136728;27;20023;-36
2021/09/12 08:53:37;;;;;;;24.98;18.65;;;23.20;56.30;;;;;;5136375;27;20126;-34
2021/09/12 08:56:03;;;;;;;25.95;17.30;;;23.30;56.20;;;;;;5136737;27;20159;-34
2021/09/12 08:58:29;;;;;;;22.40;15.65;;;23.30;56.10;;;;;;5136996;27;20395;-34
2021/09/12 09:00:59;;;;;;;23.63;16.10;;;23.40;56.00;;;;;;5136420;27;20204;-35
2021/09/12 09:03:34;;;;;;;19.45;14.80;;;23.40;55.40;;;;;;5136920;27;20031;-35
2021/09/12 09:06:09;;;;;;;34.97;16.90;;;23.50;54.80;;;;;;5135982;27;20053;-35
2021/09/12 09:08:51;;;;;;;21.63;15.30;;;23.50;53.40;;;;;;5136583;27;20367;-35
2021/09/12 09:11:27;;;;;;;19.75;13.85;;;23.60;53.20;;;;;;5136386;27;20065;-35
2021/09/12 09:13:53;;;;;;;25.13;16.50;;;23.60;53.00;;;;;;5136633;27;20035;-35
2021/09/12 09:16:28;;;;;;;22.00;12.95;;;23.70;52.40;;;;;;5136392;28;20028;-37
2021/09/12 09:19:04;;;;;;;19.58;11.38;;;23.70;52.10;;;;;;5136087;28;20030;-37
2021/09/12 09:21:31;;;;;;;16.50;9.80;;;23.80;51.60;;;;;;5136078;28;20122;-35
2021/09/12 09:24:25;;;;;;;13.50;8.65;;;23.80;51.00;;;;;;5136270;28;20414;-36
2021/09/12 09:26:53;;;;;;;12.43;8.00;;;23.90;50.80;;;;;;5135992;27;20039;-35
2021/09/12 09:29:24;;;;;;;11.80;7.57;;;24.00;50.70;;;;;;5140454;27;20028;-35
2021/09/12 09:32:00;;;;;;;13.48;8.55;;;24.10;49.10;;;;;;5140538;27;20109;-37
2021/09/12 09:34:26;;;;;;;16.60;9.10;;;24.10;49.30;;;;;;5140342;27;20027;-37
2021/09/12 09:36:52;;;;;;;9.38;6.50;;;24.20;48.00;;;;;;5140317;27;20379;-35
2021/09/12 09:39:35;;;;;;;11.60;6.03;;;24.30;47.20;;;;;;5140265;27;20034;-35
2021/09/12 09:42:00;;;;;;;8.23;6.40;;;24.40;47.40;;;;;;5140457;27;20023;-36
2021/09/12 09:44:26;;;;;;;13.75;6.57;;;24.60;46.60;;;;;;5140138;27;20091;-36
2021/09/12 09:46:53;;;;;;;13.00;6.22;;;24.70;46.10;;;;;;5140086;27;20032;-35
2021/09/12 09:49:29;;;;;;;19.85;7.28;;;24.80;46.30;;;;;;5140190;27;20088;-37
2021/09/12 09:51:58;;;;;;;10.15;6.63;;;24.90;45.20;;;;;;5140448;27;20032;-35
2021/09/12 09:54:32;;;;;;;11.02;6.78;;;25.00;45.50;;;;;;5139975;27;20178;-34
2021/09/12 09:56:58;;;;;;;8.55;6.40;;;25.20;45.60;;;;;;5140071;27;20427;-35
2021/09/12 09:59:26;;;;;;;14.63;7.55;;;25.30;46.00;;;;;;5140292;27;20050;-36
2021/09/12 10:01:54;;;;;;;9.48;6.72;;;25.40;46.20;;;;;;5140016;27;20027;-35
2021/09/12 10:04:21;;;;;;;10.50;6.82;;;25.50;46.10;;;;;;5139805;27;20023;-36
2021/09/12 10:06:48;;;;;;;11.77;7.22;;;25.50;45.70;;;;;;5139712;27;20049;-36
2021/09/12 10:09:15;;;;;;;9.95;7.20;;;25.60;45.80;;;;;;5139962;27;20118;-36
2021/09/12 10:12:00;;;;;;;9.85;7.40;;;25.70;45.70;;;;;;5139651;27;20035;-35
2021/09/12 10:14:47;;;;;;;13.90;8.18;;;25.80;45.40;;;;;;5139938;27;20027;-35
2021/09/12 10:17:14;;;;;;;9.50;6.75;;;25.90;45.20;;;;;;5139800;27;20088;-34
2021/09/12 10:19:42;;;;;;;18.83;7.30;;;25.90;45.00;;;;;;5139845;27;20035;-35
2021/09/12 10:22:11;;;;;;;101.03;87.97;;;26.00;44.50;;;;;;5139512;27;20023;-35
2021/09/12 10:25:02;;;;;;;17.67;13.38;;;26.10;45.00;;;;;;5139286;27;20487;-36
2021/09/12 10:27:38;;;;;;;17.73;10.95;;;26.30;43.50;;;;;;5139212;27;20394;-38
2021/09/12 10:30:24;;;;;;;12.05;7.35;;;26.40;43.20;;;;;;5139290;27;20019;-37
2021/09/12 10:32:51;;;;;;;9.85;6.50;;;26.40;42.40;;;;;;5139830;27;20026;-35
2021/09/12 10:35:26;;;;;;;11.75;6.55;;;26.60;42.30;;;;;;5139244;27;20088;-37
2021/09/12 10:37:58;;;;;;;8.95;6.30;;;26.70;41.40;;;;;;5139922;27;20024;-35
2021/09/12 10:40:45;;;;;;;9.60;6.13;;;26.80;41.40;;;;;;5139316;27;20031;-44
2021/09/12 10:43:31;;;;;;;9.90;5.63;;;26.90;41.30;;;;;;5125526;27;20385;-38
2021/09/12 10:46:05;;;;;;;7.38;5.55;;;27.10;41.40;;;;;;5139090;27;20338;-36
2021/09/12 10:48:37;;;;;;;9.35;5.70;;;27.20;41.30;;;;;;5121304;27;20464;-37
2021/09/12 10:51:10;;;;;;;7.10;5.25;;;27.30;40.60;;;;;;5138842;27;20070;-37
2021/09/12 10:53:45;;;;;;;12.57;6.55;;;27.40;41.00;;;;;;5138921;27;20059;-36
2021/09/12 10:56:17;;;;;;;14.45;5.95;;;27.50;39.70;;;;;;5138801;27;20047;-35
2021/09/12 10:58:49;;;;;;;7.97;6.10;;;27.50;40.00;;;;;;5138931;27;20035;-37
2021/09/12 11:01:36;;;;;;;11.02;6.00;;;27.60;40.70;;;;;;5138867;27;20066;-35
2021/09/12 11:04:03;;;;;;;11.18;6.57;;;27.80;40.10;;;;;;5139063;27;20027;-35
2021/09/12 11:06:53;;;;;;;11.57;6.03;;;27.90;39.60;;;;;;5138331;27;20047;-34
2021/09/12 11:09:23;;;;;;;8.63;5.45;;;28.00;38.70;;;;;;5138052;27;20441;-35
2021/09/12 11:11:54;;;;;;;13.38;5.53;;;28.10;39.60;;;;;;5138860;27;20317;-38
2021/09/12 11:14:20;;;;;;;10.45;5.80;;;28.20;38.90;;;;;;5138792;27;20042;-35
2021/09/12 11:16:46;;;;;;;9.00;5.78;;;28.30;39.60;;;;;;5138195;27;20342;-35
2021/09/12 11:19:12;;;;;;;12.32;5.65;;;28.40;39.00;;;;;;5138755;27;20032;-36
2021/09/12 11:21:59;;;;;;;7.72;5.70;;;28.50;38.30;;;;;;5138732;27;20041;-36
2021/09/12 11:24:27;;;;;;;10.52;5.35;;;28.50;38.40;;;;;;5138114;27;20053;-35
2021/09/12 11:26:59;;;;;;;9.70;5.50;;;28.60;38.20;;;;;;5138075;27;20390;-36
2021/09/12 11:29:41;;;;;;;7.82;5.13;;;28.70;37.30;;;;;;5138392;27;20035;-37
2021/09/12 11:32:14;;;;;;;9.88;5.65;;;28.80;37.80;;;;;;5138560;27;20027;-36
2021/09/12 11:34:44;;;;;;;8.15;5.45;;;28.90;38.00;;;;;;5138565;27;20367;-35
2021/09/12 11:37:13;;;;;;;10.77;6.10;;;29.00;37.40;;;;;;5138131;27;20027;-35
2021/09/12 11:39:45;;;;;;;7.13;5.45;;;29.10;37.30;;;;;;5138530;27;20414;-35
2021/09/12 11:42:13;;;;;;;9.35;5.93;;;29.20;36.90;;;;;;5138111;27;20028;-37
2021/09/12 11:44:40;;;;;;;7.50;5.50;;;29.30;36.60;;;;;;5137845;27;20032;-36
2021/09/12 11:47:12;;;;;;;6.43;5.50;;;29.40;36.70;;;;;;5137684;27;20303;-38
2021/09/12 11:49:40;;;;;;;7.47;5.82;;;29.60;36.90;;;;;;5137902;27;20299;-37
2021/09/12 11:52:06;;;;;;;8.20;5.63;;;29.70;36.90;;;;;;5137366;27;20034;-35
2021/09/12 11:54:35;;;;;;;9.70;5.65;;;29.80;37.40;;;;;;5137712;27;20163;-38
2021/09/12 11:57:04;;;;;;;8.20;5.77;;;29.90;36.70;;;;;;5138128;27;20031;-36
2021/09/12 11:59:40;;;;;;;6.53;5.22;;;30.00;36.70;;;;;;5137662;27;20051;-34
2021/09/12 12:02:10;;;;;;;10.90;5.57;;;30.10;36.10;;;;;;5137726;27;20027;-34
2021/09/12 12:04:38;;;;;;;9.48;6.75;;;30.30;36.10;;;;;;5137367;27;20114;-35
2021/09/12 12:07:03;;;;;;;8.57;5.55;;;30.40;36.30;;;;;;5137369;27;20088;-37
2021/09/12 12:09:44;;;;;;;17.02;9.98;;;30.50;35.50;;;;;;5137595;27;20035;-34
2021/09/12 12:12:09;;;;;;;10.02;6.30;;;30.60;35.00;;;;;;5137492;27;20031;-35
2021/09/12 12:14:55;;;;;;;11.07;5.68;;;30.80;34.90;;;;;;5137205;27;20057;-35
2021/09/12 12:17:23;;;;;;;15.02;6.50;;;30.80;34.10;;;;;;5137357;27;20027;-34
2021/09/12 12:19:50;;;;;;;9.05;6.00;;;31.00;34.00;;;;;;5137298;27;20019;-34
2021/09/12 12:22:18;;;;;;;10.98;6.47;;;31.10;35.10;;;;;;5137093;27;20118;-35
2021/09/12 12:24:47;;;;;;;7.82;5.60;;;31.20;34.60;;;;;;5137302;27;20323;-36
2021/09/12 12:27:17;;;;;;;9.27;5.37;;;31.40;34.50;;;;;;5137206;27;20112;-36
2021/09/12 12:29:44;;;;;;;;;;;31.50;35.00;;;;;;5137333;27;20258;-37
2021/09/12 12:32:11;;;;;;;8.00;5.07;;;31.60;35.50;;;;;;5137186;27;19911;-36